Main page
METAR-TAF:

METAR-TAF

Airports :

Netaji Subhas Chandra Bose International Airport

Kolkata, India

latitude: 22-39N, longitude: 088-27E, elevation: 4 m

Current weather observation

The report was made 24 minutes ago, at 20:00 UTC
Wind 6 kt from the South/Southwest
Temperature 30°C
Humidity 84%
Pressure 997 hPa
Visibility: 3200 m
Few clouds at a height of 2000 ft
Scattered clouds at a height of 10000 ft
haze

METAR: VECC 182000Z 20006KT 3200 HZ FEW020 SCT100 30/27 Q0997 NOSIG

Time: 01:54 (20:24 UTC)

Forecast

The report was made 6 hours and 24 minutes ago, at 14:00 UTC
Forecast valid from 18 at 15 UTC to 18 at 24 UTC
Wind 7 kt from the Southeast
Visibility: 3500 m
Scattered clouds at a height of 1800 ft
Broken clouds at a height of 10000 ft
light rain, haze
Becoming
from 18 at 16 UTC to 18 at 18 UTC
Wind 5 kt from the South/Southwest
Visibility: 2800 m
light rain, haze

TAF: VECC 181400Z 1815/1824 14007KT 3500 -RA HZ SCT018 BKN100 BECMG 1816/1818 20005KT 2800 -RA HZ

Weather observations and forecasts of more than 4000 airports (METAR and TAF reports).

The available stations are represented by yellow and red dots on the map.

Hover mouse over dot to see the name of the station.

Then click to see weather observations and forecasts.

To change the map : click on the green buttons with a black cross to zoom in, on the green button with a dash to zoom out, or on the green arrows for adjacent maps.


METAR-TAF: